Terminal Aerodrome Forecast
Issued by NWS

Home | Current Version | Previous Version | Text Only | Print | Product List | Glossary On
Versions: 1 2 3 4 5 6 7 8 9 10 11 12 13 14 15
000
FTUS41 KBTV 010520
TAFMPV
TAF
KMPV 010520Z 0106/0206 00000KT P6SM BKN120
     FM011000 VRB02KT P6SM VCSH BKN060 BKN100
     FM011400 25007KT P6SM SCT100
     FM020000 VRB03KT P6SM SCT070=

USA.gov is the U.S. government's official web portal to all federal, state and local government web resources and services.